createdAt,value
2018-10-18T00:01:51.853Z,3.67
2018-10-18T00:04:20.805Z,3.40
2018-10-18T00:06:49.777Z,3.50
2018-10-18T00:09:18.827Z,3.47
2018-10-18T00:11:47.797Z,3.30
2018-10-18T00:14:16.785Z,4.63
2018-10-18T00:16:45.764Z,3.13
2018-10-18T00:19:14.828Z,3.80
2018-10-18T00:21:43.814Z,3.83
2018-10-18T00:24:12.729Z,3.63
2018-10-18T00:26:41.706Z,3.30
2018-10-18T00:29:10.658Z,4.07
2018-10-18T00:31:39.623Z,4.10
2018-10-18T00:34:08.542Z,3.80
2018-10-18T00:36:37.536Z,4.03
2018-10-18T00:39:09.531Z,4.37
2018-10-18T00:41:38.557Z,3.20
2018-10-18T00:44:08.103Z,3.60
2018-10-18T00:46:37.085Z,3.80
2018-10-18T00:49:06.154Z,3.80
2018-10-18T00:51:35.104Z,3.87
2018-10-18T00:54:04.146Z,3.73
2018-10-18T00:56:33.009Z,4.07
2018-10-18T00:59:01.920Z,4.40
2018-10-18T01:01:30.830Z,4.27
2018-10-18T02:41:08.674Z,6.20
2018-10-18T02:43:37.876Z,6.10
2018-10-18T02:46:07.045Z,6.13
2018-10-18T02:48:36.275Z,6.40
2018-10-18T02:51:05.472Z,6.80
2018-10-18T02:53:34.666Z,5.93
2018-10-18T02:56:03.975Z,6.23
2018-10-18T02:58:33.266Z,6.37
2018-10-18T03:01:02.444Z,6.73
2018-10-18T03:03:31.724Z,6.63
2018-10-18T03:06:00.954Z,7.27
2018-10-18T03:08:30.233Z,6.70
2018-10-18T03:10:59.578Z,7.90
2018-10-18T03:13:28.855Z,6.83
2018-10-18T03:15:58.056Z,8.10
2018-10-18T03:18:27.262Z,6.50
2018-10-18T03:20:56.746Z,6.50
2018-10-18T03:23:25.938Z,7.97
2018-10-18T03:25:55.134Z,6.00
2018-10-18T03:28:24.366Z,7.90
2018-10-18T03:30:53.635Z,7.10
2018-10-18T03:33:22.757Z,7.47
2018-10-18T03:35:51.928Z,8.30
2018-10-18T03:38:21.136Z,8.57
2018-10-18T03:40:50.408Z,7.60
2018-10-18T03:43:19.637Z,7.97
2018-10-18T03:45:48.923Z,9.57
2018-10-18T03:48:18.157Z,9.67
2018-10-18T03:50:47.275Z,9.63
2018-10-18T03:53:16.443Z,9.80
2018-10-18T03:55:45.647Z,12.40
2018-10-18T03:58:14.836Z,11.83
2018-10-18T04:00:44.050Z,11.37
2018-10-18T04:03:13.317Z,12.30
2018-10-18T04:05:42.630Z,12.87
2018-10-18T04:08:11.826Z,12.87
2018-10-18T04:10:41.046Z,11.70
2018-10-18T04:13:10.278Z,12.40
2018-10-18T04:15:39.281Z,13.20
2018-10-18T04:18:08.541Z,10.47
2018-10-18T04:20:37.726Z,11.63
2018-10-18T04:23:06.898Z,11.70
2018-10-18T04:25:36.175Z,12.23
2018-10-18T04:28:05.331Z,12.50
2018-10-18T04:30:34.527Z,13.30
2018-10-18T04:33:03.736Z,11.87
2018-10-18T04:35:32.938Z,12.57
2018-10-18T04:38:02.126Z,10.70
2018-10-18T04:40:31.417Z,11.83
2018-10-18T04:43:00.619Z,11.27
2018-10-18T04:45:29.789Z,11.77
2018-10-18T04:47:59.103Z,13.07
2018-10-18T04:50:28.286Z,11.50
2018-10-18T04:52:57.526Z,12.10
2018-10-18T04:55:26.718Z,14.30
2018-10-18T04:57:55.753Z,11.27
2018-10-18T05:00:24.751Z,10.57
2018-10-18T05:02:53.823Z,11.10
2018-10-18T05:05:33.641Z,10.80
2018-10-18T05:08:02.838Z,12.10
2018-10-18T05:10:32.004Z,10.30
2018-10-18T05:13:01.228Z,12.27
2018-10-18T05:15:30.431Z,13.00
2018-10-18T05:17:59.811Z,12.97
2018-10-18T05:20:29.010Z,12.37
2018-10-18T05:22:58.303Z,12.67
2018-10-18T05:25:27.578Z,13.47
2018-10-18T05:27:56.747Z,12.70
2018-10-18T05:30:26.034Z,12.20
2018-10-18T05:32:55.297Z,14.03
2018-10-18T05:35:24.435Z,11.37
2018-10-18T05:37:53.668Z,12.10
2018-10-18T05:40:22.896Z,12.37
2018-10-18T05:42:52.123Z,12.20
2018-10-18T05:45:21.813Z,14.03
2018-10-18T05:47:51.099Z,13.00
2018-10-18T05:50:20.296Z,13.90
2018-10-18T05:52:49.510Z,14.37
2018-10-18T05:55:18.727Z,12.13
2018-10-18T05:57:48.094Z,13.03
2018-10-18T06:00:18.683Z,13.20
2018-10-18T06:02:48.176Z,16.87
2018-10-18T06:05:18.390Z,11.83
2018-10-18T06:07:47.677Z,16.17
2018-10-18T06:10:28.408Z,11.13
2018-10-18T06:12:57.783Z,12.63
2018-10-18T06:15:27.044Z,14.00
2018-10-18T06:17:56.267Z,13.67
2018-10-18T06:20:25.633Z,10.37
2018-10-18T06:22:55.041Z,12.00
2018-10-18T06:25:24.133Z,13.67
2018-10-18T06:27:53.377Z,13.23
2018-10-18T06:30:22.812Z,11.90
2018-10-18T06:32:52.109Z,14.10
2018-10-18T06:35:21.381Z,12.63
2018-10-18T06:37:50.609Z,13.30
2018-10-18T06:40:19.927Z,12.30
2018-10-18T06:42:49.226Z,14.83
2018-10-18T06:45:19.476Z,11.97
2018-10-18T06:47:49.002Z,13.73
2018-10-18T06:50:19.326Z,14.63
2018-10-18T06:52:48.606Z,13.83
2018-10-18T06:55:17.854Z,12.10
2018-10-18T06:57:47.099Z,16.10
2018-10-18T07:00:22.074Z,15.67
2018-10-18T07:02:51.767Z,16.77
2018-10-18T07:05:20.929Z,14.60
2018-10-18T07:07:50.135Z,15.30
2018-10-18T07:10:19.358Z,14.20
2018-10-18T07:12:48.768Z,12.87
2018-10-18T07:15:17.958Z,15.77
2018-10-18T07:17:47.316Z,15.17
2018-10-18T07:20:16.607Z,17.10
2018-10-18T07:22:45.768Z,12.73
2018-10-18T07:25:16.231Z,15.80
2018-10-18T07:27:45.457Z,15.23
2018-10-18T07:30:15.651Z,14.93
2018-10-18T07:32:44.877Z,14.60
2018-10-18T07:35:14.823Z,15.83
2018-10-18T07:37:45.234Z,15.10
2018-10-18T07:40:16.600Z,15.53
2018-10-18T07:42:45.867Z,15.03
2018-10-18T07:45:16.221Z,13.70
2018-10-18T07:47:45.926Z,14.07
2018-10-18T07:50:15.137Z,11.43
2018-10-18T07:52:44.403Z,14.37
2018-10-18T07:55:13.510Z,13.40
2018-10-18T07:57:42.833Z,14.47
2018-10-18T08:00:14.741Z,14.57
2018-10-18T08:02:44.591Z,13.57
2018-10-18T08:05:14.221Z,15.10
2018-10-18T08:07:43.555Z,14.57
2018-10-18T08:10:24.936Z,17.70
2018-10-18T08:12:54.183Z,13.07
2018-10-18T08:15:23.477Z,15.77
2018-10-18T08:17:52.671Z,15.37
2018-10-18T08:20:21.871Z,14.40
2018-10-18T08:22:51.304Z,13.67
2018-10-18T08:25:20.495Z,15.97
2018-10-18T08:27:49.794Z,15.00
2018-10-18T08:30:18.910Z,13.80
2018-10-18T08:32:48.191Z,13.97
2018-10-18T08:35:17.344Z,12.70
2018-10-18T08:37:46.695Z,13.07
2018-10-18T08:40:15.792Z,13.53
2018-10-18T08:42:45.051Z,13.97
2018-10-18T08:45:15.009Z,14.93
2018-10-18T08:47:44.122Z,12.50
2018-10-18T08:50:13.473Z,13.33
2018-10-18T08:52:42.574Z,13.23
2018-10-18T08:55:13.552Z,12.53
2018-10-18T08:57:43.312Z,11.57
2018-10-18T09:00:13.328Z,12.27
2018-10-18T09:02:43.346Z,11.50
2018-10-18T09:05:12.621Z,12.17
2018-10-18T09:07:41.863Z,12.20
2018-10-18T09:10:11.059Z,9.57
2018-10-18T09:12:40.240Z,10.40
2018-10-18T09:15:10.093Z,9.63
2018-10-18T09:17:39.474Z,11.70
2018-10-18T09:20:08.767Z,11.20
2018-10-18T09:22:38.206Z,10.30
2018-10-18T09:25:08.342Z,9.60
2018-10-18T09:27:37.587Z,10.30
2018-10-18T09:30:08.483Z,11.30
2018-10-18T09:32:37.669Z,10.90
2018-10-18T09:35:07.056Z,11.07
2018-10-18T09:37:36.224Z,11.63
2018-10-18T09:40:05.909Z,9.60
2018-10-18T09:42:35.046Z,10.50
2018-10-18T09:45:04.140Z,9.53
2018-10-18T09:47:32.993Z,10.40
2018-10-18T09:50:01.926Z,9.90
2018-10-18T09:52:30.869Z,10.37
2018-10-18T09:54:59.802Z,9.67
2018-10-18T09:57:28.790Z,9.20
2018-10-18T09:59:57.742Z,8.77
2018-10-18T10:02:31.889Z,10.97
2018-10-18T10:05:00.817Z,10.23
2018-10-18T10:07:29.767Z,8.00
2018-10-18T10:09:58.692Z,9.63
2018-10-18T10:12:27.622Z,8.97
2018-10-18T10:14:56.558Z,10.40
2018-10-18T10:17:25.554Z,11.53
2018-10-18T10:19:54.499Z,9.70
2018-10-18T10:22:23.439Z,10.63
2018-10-18T10:24:52.407Z,8.93
2018-10-18T10:27:21.375Z,10.13
2018-10-18T10:29:50.298Z,11.40
2018-10-18T10:32:19.359Z,9.40
2018-10-18T10:34:48.277Z,10.57
2018-10-18T10:37:17.268Z,9.93
2018-10-18T10:39:46.385Z,9.93
2018-10-18T10:42:15.383Z,8.80
2018-10-18T10:44:44.363Z,8.30
2018-10-18T10:47:13.269Z,9.10
2018-10-18T10:49:42.189Z,9.40
2018-10-18T10:52:11.246Z,8.50
2018-10-18T10:54:40.105Z,10.30
2018-10-18T10:57:09.119Z,11.17
2018-10-18T10:59:38.033Z,9.97
2018-10-18T11:02:07.338Z,9.10
2018-10-18T11:04:36.232Z,10.07
2018-10-18T11:07:05.178Z,9.37
2018-10-18T11:09:34.096Z,8.50
2018-10-18T11:12:03.105Z,8.30
2018-10-18T11:14:32.021Z,10.67
2018-10-18T11:17:01.025Z,8.27
2018-10-18T11:19:29.937Z,8.80
2018-10-18T11:21:58.937Z,8.60
2018-10-18T11:24:27.886Z,8.57
2018-10-18T11:26:56.929Z,8.00
2018-10-18T11:29:25.877Z,8.00
2018-10-18T11:31:54.853Z,7.50
2018-10-18T11:34:23.884Z,7.47
2018-10-18T11:36:52.825Z,8.00
2018-10-18T11:39:21.786Z,8.50
2018-10-18T11:41:50.754Z,8.27
2018-10-18T11:44:22.542Z,8.10
2018-10-18T11:46:51.511Z,7.17
2018-10-18T11:49:20.441Z,8.10
2018-10-18T11:51:49.502Z,7.63
2018-10-18T11:54:18.518Z,7.80
2018-10-18T11:56:47.592Z,7.70
2018-10-18T11:59:16.560Z,7.30
2018-10-18T12:01:45.538Z,8.80
2018-10-18T12:04:14.510Z,7.30
2018-10-18T12:06:43.533Z,7.57
2018-10-18T12:09:12.994Z,7.47
2018-10-18T12:11:42.139Z,7.80
2018-10-18T12:14:11.321Z,6.47
2018-10-18T12:16:40.333Z,6.93
2018-10-18T12:19:09.629Z,7.47
2018-10-18T12:21:38.626Z,8.07
2018-10-18T12:24:07.718Z,7.67
2018-10-18T12:26:36.780Z,6.90
2018-10-18T12:29:05.895Z,7.23
2018-10-18T12:31:35.116Z,6.67
2018-10-18T12:34:04.357Z,7.80
2018-10-18T12:36:33.357Z,6.53
2018-10-18T12:39:02.615Z,8.17
2018-10-18T12:41:31.684Z,6.60
2018-10-18T12:44:00.841Z,7.63
2018-10-18T12:46:29.946Z,7.00
2018-10-18T12:48:59.200Z,6.80
2018-10-18T12:51:28.250Z,7.47
2018-10-18T12:53:57.393Z,7.17
2018-10-18T12:56:26.542Z,7.60
2018-10-18T12:58:55.674Z,7.63
2018-10-18T13:01:24.874Z,9.13
2018-10-18T13:03:53.977Z,9.63
2018-10-18T13:06:23.123Z,8.90
2018-10-18T13:08:52.540Z,8.87
2018-10-18T13:11:21.776Z,9.20
2018-10-18T13:13:50.931Z,7.83
2018-10-18T13:16:19.968Z,8.40
2018-10-18T13:18:49.288Z,8.67
2018-10-18T13:21:18.415Z,9.13
2018-10-18T13:23:47.405Z,7.77
2018-10-18T13:26:16.406Z,8.53
2018-10-18T13:28:45.374Z,8.07
2018-10-18T13:31:14.310Z,7.63
2018-10-18T13:33:43.277Z,9.03
2018-10-18T13:36:12.310Z,7.93
2018-10-18T13:38:41.338Z,10.13
2018-10-18T13:41:10.295Z,8.23
2018-10-18T13:43:39.275Z,9.30
2018-10-18T13:46:08.218Z,8.60
2018-10-18T13:48:37.267Z,8.73
2018-10-18T13:51:06.210Z,8.50
2018-10-18T13:53:39.758Z,9.30
2018-10-18T13:56:09.195Z,9.37
2018-10-18T13:58:38.226Z,8.40
2018-10-18T14:01:07.161Z,9.60
2018-10-18T14:03:36.148Z,9.43
2018-10-18T14:06:05.087Z,8.33
2018-10-18T14:08:34.082Z,8.40
2018-10-18T14:11:03.128Z,9.67
2018-10-18T14:13:32.087Z,7.40
2018-10-18T14:18:57.901Z,10.30
2018-10-18T14:21:26.950Z,9.30
2018-10-18T14:23:55.906Z,9.00
2018-10-18T14:26:24.908Z,9.73
2018-10-18T14:28:53.912Z,8.97
2018-10-18T14:31:22.889Z,9.20
2018-10-18T14:33:51.876Z,8.63
2018-10-18T14:36:20.827Z,8.90
2018-10-18T14:38:49.936Z,10.23
2018-10-18T14:41:18.926Z,9.13
2018-10-18T14:43:47.866Z,8.83
2018-10-18T14:46:16.826Z,10.40
2018-10-18T14:48:45.809Z,9.60
2018-10-18T14:51:14.806Z,10.37
2018-10-18T14:53:43.807Z,9.60
2018-10-18T14:56:12.950Z,8.77
2018-10-18T14:58:41.854Z,9.50
2018-10-18T15:01:10.796Z,8.47
2018-10-18T15:03:39.784Z,9.37
2018-10-18T15:06:08.745Z,9.33
2018-10-18T15:08:38.018Z,10.27
2018-10-18T15:11:07.057Z,10.27
2018-10-18T15:13:36.031Z,9.37
2018-10-18T15:16:04.965Z,11.17
2018-10-18T15:18:33.916Z,10.30
2018-10-18T15:21:02.944Z,11.67
2018-10-18T15:23:31.922Z,10.63
2018-10-18T15:26:00.964Z,10.67
2018-10-18T15:28:29.936Z,12.40
2018-10-18T15:30:59.078Z,11.10
2018-10-18T15:33:28.042Z,10.97
2018-10-18T15:35:57.073Z,9.70
2018-10-18T15:38:26.239Z,11.07
2018-10-18T15:40:55.347Z,10.30
2018-10-18T15:43:25.264Z,9.80
2018-10-18T15:45:54.324Z,10.63
2018-10-18T15:48:23.290Z,10.43
2018-10-18T15:50:52.585Z,10.17
2018-10-18T15:53:21.831Z,11.70
2018-10-18T15:55:51.113Z,10.20
2018-10-18T15:58:20.059Z,11.07
2018-10-18T16:00:49.054Z,10.73
2018-10-18T16:03:18.089Z,11.63
2018-10-18T16:05:47.062Z,12.40
2018-10-18T16:08:16.266Z,11.40
2018-10-18T16:10:45.491Z,12.23
2018-10-18T16:13:14.541Z,8.60
2018-10-18T16:15:43.741Z,12.10
2018-10-18T16:18:12.883Z,11.20
2018-10-18T16:20:42.042Z,12.67
2018-10-18T16:23:11.230Z,12.03
2018-10-18T16:25:40.433Z,11.17
2018-10-18T16:28:09.618Z,11.27
2018-10-18T16:30:38.790Z,11.77
2018-10-18T16:33:08.285Z,11.63
2018-10-18T16:35:37.753Z,11.97
2018-10-18T16:38:07.065Z,10.23
2018-10-18T16:40:36.239Z,12.10
2018-10-18T16:43:05.512Z,11.73
2018-10-18T16:45:34.737Z,11.27
2018-10-18T16:48:03.961Z,11.37
2018-10-18T16:50:33.214Z,11.43
2018-10-18T16:53:02.517Z,11.50
2018-10-18T16:55:31.736Z,11.80
2018-10-18T16:58:00.931Z,11.10
2018-10-18T17:00:30.195Z,10.33
2018-10-18T17:02:59.405Z,10.83
2018-10-18T17:05:28.630Z,11.90
2018-10-18T17:07:57.877Z,9.57
2018-10-18T17:10:27.333Z,9.97
2018-10-18T17:12:56.511Z,11.37
2018-10-18T17:15:25.730Z,10.57
2018-10-18T17:17:54.941Z,11.70
2018-10-18T17:20:24.319Z,11.03
2018-10-18T17:22:53.414Z,11.20
2018-10-18T17:25:22.632Z,10.80
2018-10-18T17:27:51.855Z,12.20
2018-10-18T17:30:21.078Z,11.50
2018-10-18T17:32:50.278Z,11.13
2018-10-18T17:35:19.701Z,10.73
2018-10-18T17:37:48.894Z,12.97
2018-10-18T17:40:18.282Z,12.67
2018-10-18T17:42:47.426Z,11.37
2018-10-18T17:45:17.144Z,11.50
2018-10-18T17:47:46.626Z,11.80
2018-10-18T17:50:16.456Z,13.50
2018-10-18T17:52:45.874Z,12.40
2018-10-18T17:55:15.472Z,10.47
2018-10-18T17:57:45.032Z,9.60
2018-10-18T18:00:14.765Z,10.80
2018-10-18T18:02:44.366Z,11.53
2018-10-18T18:05:14.013Z,9.87
2018-10-18T18:07:43.523Z,11.20
2018-10-18T18:10:15.928Z,11.00
2018-10-18T18:12:45.682Z,11.10
2018-10-18T18:15:15.300Z,10.47
2018-10-18T18:17:44.915Z,11.97
2018-10-18T18:20:14.306Z,9.50
2018-10-18T18:22:43.532Z,9.03
2018-10-18T18:25:13.294Z,8.00
2018-10-18T18:27:42.505Z,10.30
2018-10-18T18:30:14.251Z,10.23
2018-10-18T18:32:44.072Z,10.03
2018-10-18T18:35:13.553Z,10.27
2018-10-18T18:37:42.807Z,10.70
2018-10-18T18:40:12.007Z,9.93
2018-10-18T18:42:41.582Z,9.20
2018-10-18T18:45:16.056Z,9.30
2018-10-18T18:47:45.219Z,9.63
2018-10-18T18:50:14.435Z,10.40
2018-10-18T18:52:43.658Z,10.40
2018-10-18T18:55:12.822Z,8.63
2018-10-18T18:57:42.116Z,9.90
2018-10-18T19:00:11.795Z,8.97
2018-10-18T19:02:41.010Z,8.93
2018-10-18T19:05:10.662Z,8.50
2018-10-18T19:07:40.265Z,8.97
2018-10-18T19:10:10.018Z,9.47
2018-10-18T19:12:39.784Z,8.90
2018-10-18T19:15:09.722Z,7.77
2018-10-18T19:17:40.193Z,7.77
2018-10-18T19:20:09.817Z,9.53
2018-10-18T19:22:39.465Z,10.30
2018-10-18T19:25:09.409Z,8.60
2018-10-18T19:27:39.128Z,9.87
2018-10-18T19:30:10.046Z,7.77
2018-10-18T19:32:39.782Z,8.40
2018-10-18T19:35:09.466Z,7.67
2018-10-18T19:37:39.074Z,8.33
2018-10-18T19:40:09.225Z,8.33
2018-10-18T19:42:38.726Z,8.10
2018-10-18T19:45:08.963Z,8.30
2018-10-18T19:47:38.538Z,8.53
2018-10-18T19:50:08.543Z,7.37
2018-10-18T19:52:38.271Z,7.47
2018-10-18T19:55:08.500Z,7.60
2018-10-18T19:57:38.031Z,6.33
2018-10-18T20:00:08.353Z,7.97
2018-10-18T20:02:37.729Z,7.67
2018-10-18T20:05:07.374Z,8.07
2018-10-18T20:07:36.783Z,7.83
2018-10-18T20:10:06.555Z,6.97
2018-10-18T20:12:35.785Z,6.53
2018-10-18T20:15:05.561Z,6.33
2018-10-18T20:17:34.760Z,6.90
2018-10-18T20:20:04.191Z,7.67
2018-10-18T20:22:33.411Z,7.03
2018-10-18T20:25:02.645Z,6.10
2018-10-18T20:27:31.854Z,6.50
2018-10-18T20:30:01.090Z,6.23
2018-10-18T20:32:30.321Z,7.47
2018-10-18T20:34:59.454Z,6.23
2018-10-18T20:37:28.770Z,6.70
2018-10-18T20:39:58.136Z,7.77
2018-10-18T20:42:27.459Z,6.60
2018-10-18T20:44:56.806Z,5.50
2018-10-18T20:47:26.204Z,5.73
2018-10-18T20:49:55.224Z,6.20
2018-10-18T20:52:24.421Z,5.80
2018-10-18T20:54:53.563Z,6.37
2018-10-18T20:57:22.776Z,5.73
2018-10-18T20:59:51.962Z,6.13
2018-10-18T21:02:21.167Z,5.67
2018-10-18T21:04:50.338Z,7.10
2018-10-18T21:07:19.583Z,5.93
2018-10-18T21:09:48.737Z,5.90
2018-10-18T21:12:17.966Z,4.57
2018-10-18T21:14:47.379Z,6.20
2018-10-18T21:17:16.573Z,5.80
2018-10-18T21:19:45.744Z,4.13
2018-10-18T21:22:15.018Z,4.63
2018-10-18T21:24:44.330Z,4.20
2018-10-18T21:27:13.736Z,4.20
2018-10-18T21:29:43.238Z,4.60
2018-10-18T21:32:14.114Z,4.33
2018-10-18T21:34:43.511Z,3.60
2018-10-18T21:37:12.634Z,3.30
2018-10-18T21:39:41.902Z,3.20
2018-10-18T21:42:11.062Z,3.30
2018-10-18T21:44:40.467Z,3.33
2018-10-18T21:47:09.868Z,2.80
2018-10-18T21:49:39.025Z,4.00
2018-10-18T21:52:08.218Z,2.70
2018-10-18T21:54:37.503Z,3.40
2018-10-18T21:57:07.053Z,2.17
2018-10-18T21:59:36.207Z,3.03
2018-10-18T22:02:05.679Z,3.13
2018-10-18T22:04:34.884Z,3.30
2018-10-18T22:07:04.035Z,2.90
2018-10-18T22:09:33.187Z,2.00
2018-10-18T22:12:02.386Z,2.20
2018-10-18T22:14:31.575Z,2.40
2018-10-18T22:17:00.711Z,2.57
2018-10-18T22:19:29.939Z,3.97
2018-10-18T22:21:59.096Z,2.73
2018-10-18T22:24:28.296Z,1.80
2018-10-18T22:26:57.733Z,3.07
2018-10-18T22:29:27.026Z,1.80
2018-10-18T22:31:56.186Z,1.73
2018-10-18T22:34:25.398Z,1.90
2018-10-18T22:36:54.605Z,1.97
2018-10-18T22:39:23.780Z,1.67
2018-10-18T22:41:52.898Z,2.20
2018-10-18T22:44:22.094Z,1.47
2018-10-18T22:46:51.193Z,1.97
2018-10-18T22:49:20.439Z,1.67
2018-10-18T22:51:49.588Z,2.00
2018-10-18T22:54:18.756Z,1.70
2018-10-18T22:56:48.026Z,2.10
2018-10-18T22:59:17.255Z,1.43
2018-10-18T23:01:46.429Z,1.90
2018-10-18T23:04:15.581Z,1.40
2018-10-18T23:06:44.748Z,1.33
2018-10-18T23:09:14.049Z,1.93
2018-10-18T23:11:43.070Z,1.60
2018-10-18T23:14:12.256Z,2.33
2018-10-18T23:16:41.431Z,1.40
2018-10-18T23:19:10.935Z,1.60
2018-10-18T23:21:40.134Z,1.63
2018-10-18T23:24:09.271Z,1.70
2018-10-18T23:26:38.464Z,1.00
2018-10-18T23:29:07.655Z,1.67
2018-10-18T23:31:36.875Z,1.37
2018-10-18T23:34:06.360Z,2.03
2018-10-18T23:36:35.622Z,1.57
2018-10-18T23:39:06.116Z,1.70
2018-10-18T23:41:35.294Z,1.00
2018-10-18T23:44:04.428Z,1.70
2018-10-18T23:46:33.589Z,1.60
2018-10-18T23:49:02.739Z,1.50
2018-10-18T23:51:31.968Z,1.83
2018-10-18T23:54:01.144Z,1.70
2018-10-18T23:56:30.421Z,1.80
2018-10-18T23:58:59.618Z,1.30
